Roanoke, VA (24037)

9:01 AM EST on February 09, 2016 (GMT -0500)
APRSWXNET | | Change Station
CLOSE
Current Station
Personal Weather Station
Location: Roanoke, VA
Elevation: 941 ft
Nearby Weather Stations

Elev 941 ft 37.27 °N, 79.94 °W | Updated 23 minutes ago

Overcast
Overcast
34 °F
Feels Like 29 °F
N
6
Wind Variable Wind from WSW
Gusts 0.0 mph

Today
High -- | Low -- °F
--% Chance of Precip.
Yesterday
High -- | Low -- °F
Precip. -- in
Pressure 29.68 in
Visibility 10.0 miles
Clouds Scattered Clouds 3500 ft
Overcast 10000 ft
Windchill 29 °F
Dew Point 25 °F
Humidity 70%
Rainfall in
Snow Depth Not available.
7:15 AM 5:52 PM
New Moon, 1% visible
METAR KROA 091354Z 28013KT 10SM SCT035 OVC100 00/M06 A2965 RMK AO2 SLP049 T00001061
Pressure 29.68 in
Visibility 10.0 miles
Clouds Scattered Clouds 3500 ft
Overcast 10000 ft
Windchill 29 °F
Dew Point 25 °F
Humidity 70%
Rainfall in
Snow Depth Not available.
7:15 AM 5:52 PM
New Moon, 1% visible
METAR KROA 091354Z 28013KT 10SM SCT035 OVC100 00/M06 A2965 RMK AO2 SLP049 T00001061

10-Day Weather Forecast

Almanac

Astronomy

Feb. 09, 2016 Rise Set
Actual Time
Civil Twilight
Nautical Twilight
Astronomical Twilight
Moon
Length of Visible Light
Length of Day
Tomorrow will be .
, % of the Moon is Illuminated

Today's Extremes

State Highs State Lows

Community

WunderPhotos

Upload Photos

1,891,597 photos uploaded!

WunderBlog® & News

Nearby

Air Quality

  Air Quality AQ Index Pollutant
Not available.

Snow Depth

Station Depth Elevation

Earthquake Activity

City Distance Mag. Time & Date
Minimum magnitude displayed is 2.5.

Coastal Water Temperatures

Place Temperature

Stations

Nearby Weather Stations

Station Location Temp. Windchill Dew Point Humidity Wind Precip. Elev Updated Type
                   

Watches & Warnings

There are currently no watches in effect.